sensor_id;sensor_type;location;lat;lon;timestamp;pressure;altitude;pressure_sealevel;temperature;humidity
61676;BME280;47574;52.090;5.244;2022-10-24T00:03:00;100278.0;;;21.62;56.5
61676;BME280;47574;52.090;5.244;2022-10-24T00:04:40;100275.0;;;21.53;56.98
61676;BME280;47574;52.090;5.244;2022-10-24T00:06:17;100269.0;;;21.57;56.66
61676;BME280;47574;52.090;5.244;2022-10-24T00:07:54;100278.0;;;21.24;57.65
61676;BME280;47574;52.090;5.244;2022-10-24T00:11:09;100272.0;;;21.56;56.88
61676;BME280;47574;52.090;5.244;2022-10-24T00:12:47;100274.0;;;21.27;57.44
61676;BME280;47574;52.090;5.244;2022-10-24T00:14:23;100266.0;;;21.17;57.71
61676;BME280;47574;52.090;5.244;2022-10-24T00:17:37;100262.0;;;21.37;57.21
61676;BME280;47574;52.090;5.244;2022-10-24T00:19:13;100265.0;;;21.16;57.73
61676;BME280;47574;52.090;5.244;2022-10-24T00:20:49;100266.0;;;21.24;57.5
61676;BME280;47574;52.090;5.244;2022-10-24T00:22:27;100260.0;;;21.4;56.88
61676;BME280;47574;52.090;5.244;2022-10-24T00:25:40;100250.0;;;21.36;57.0
61676;BME280;47574;52.090;5.244;2022-10-24T00:27:16;100261.0;;;21.35;57.01
61676;BME280;47574;52.090;5.244;2022-10-24T00:28:53;100263.0;;;21.18;57.17
61676;BME280;47574;52.090;5.244;2022-10-24T00:32:06;100257.0;;;21.16;57.16
61676;BME280;47574;52.090;5.244;2022-10-24T00:33:42;100261.0;;;21.24;56.92
61676;BME280;47574;52.090;5.244;2022-10-24T00:35:19;100260.0;;;21.0;57.32
61676;BME280;47574;52.090;5.244;2022-10-24T00:38:31;100256.0;;;20.75;57.86
61676;BME280;47574;52.090;5.244;2022-10-24T00:40:10;100249.0;;;21.1;56.95
61676;BME280;47574;52.090;5.244;2022-10-24T00:41:50;100255.0;;;21.13;56.74
61676;BME280;47574;52.090;5.244;2022-10-24T00:43:26;100250.0;;;20.94;57.05
61676;BME280;47574;52.090;5.244;2022-10-24T00:47:16;100244.0;;;20.94;57.06
61676;BME280;47574;52.090;5.244;2022-10-24T00:48:54;100240.0;;;21.18;56.31
61676;BME280;47574;52.090;5.244;2022-10-24T00:50:31;100246.0;;;21.27;55.91
61676;BME280;47574;52.090;5.244;2022-10-24T00:52:08;100236.0;;;21.17;56.25
61676;BME280;47574;52.090;5.244;2022-10-24T00:55:34;100240.0;;;21.14;56.12
61676;BME280;47574;52.090;5.244;2022-10-24T00:57:15;100248.0;;;21.03;56.28
61676;BME280;47574;52.090;5.244;2022-10-24T00:58:56;100251.0;;;21.0;56.29
61676;BME280;47574;52.090;5.244;2022-10-24T01:00:34;100233.0;;;21.24;55.6
61676;BME280;47574;52.090;5.244;2022-10-24T01:02:11;100239.0;;;21.41;55.16
61676;BME280;47574;52.090;5.244;2022-10-24T01:05:26;100240.0;;;21.39;54.93
61676;BME280;47574;52.090;5.244;2022-10-24T01:07:16;100239.0;;;21.37;54.87
61676;BME280;47574;52.090;5.244;2022-10-24T01:09:05;100235.0;;;21.28;54.81
61676;BME280;47574;52.090;5.244;2022-10-24T01:10:50;100233.0;;;21.25;54.86
61676;BME280;47574;52.090;5.244;2022-10-24T01:14:30;100233.0;;;21.32;54.63
61676;BME280;47574;52.090;5.244;2022-10-24T01:16:22;100240.0;;;21.21;54.87
61676;BME280;47574;52.090;5.244;2022-10-24T01:18:05;100240.0;;;20.98;55.16
61676;BME280;47574;52.090;5.244;2022-10-24T01:20:04;100231.0;;;21.46;53.86
61676;BME280;47574;52.090;5.244;2022-10-24T01:21:52;100236.0;;;21.39;53.95
61676;BME280;47574;52.090;5.244;2022-10-24T01:26:39;100226.0;;;21.46;53.51
61676;BME280;47574;52.090;5.244;2022-10-24T01:29:36;100221.0;;;21.55;53.08
61676;BME280;47574;52.090;5.244;2022-10-24T01:32:07;100226.0;;;21.4;53.54
61676;BME280;47574;52.090;5.244;2022-10-24T01:33:49;100228.0;;;21.71;52.95
61676;BME280;47574;52.090;5.244;2022-10-24T01:37:20;100230.0;;;21.62;52.75
61676;BME280;47574;52.090;5.244;2022-10-24T01:39:04;100222.0;;;21.36;53.2
61676;BME280;47574;52.090;5.244;2022-10-24T01:40:49;100221.0;;;21.47;53.0
61676;BME280;47574;52.090;5.244;2022-10-24T01:42:29;100219.0;;;21.68;52.44
61676;BME280;47574;52.090;5.244;2022-10-24T01:44:09;100213.0;;;21.48;52.58
61676;BME280;47574;52.090;5.244;2022-10-24T01:47:36;100210.0;;;21.38;52.92
61676;BME280;47574;52.090;5.244;2022-10-24T01:49:22;100210.0;;;21.66;52.32
61676;BME280;47574;52.090;5.244;2022-10-24T01:51:02;100205.0;;;21.5;52.3
61676;BME280;47574;52.090;5.244;2022-10-24T01:52:42;100201.0;;;21.6;52.14
61676;BME280;47574;52.090;5.244;2022-10-24T01:55:58;100205.0;;;21.42;52.47
61676;BME280;47574;52.090;5.244;2022-10-24T01:57:35;100202.0;;;21.28;52.78
61676;BME280;47574;52.090;5.244;2022-10-24T01:59:39;100194.0;;;21.56;52.18
61676;BME280;47574;52.090;5.244;2022-10-24T02:03:00;100190.0;;;21.55;51.73
61676;BME280;47574;52.090;5.244;2022-10-24T02:06:25;100190.0;;;21.02;52.65
61676;BME280;47574;52.090;5.244;2022-10-24T02:08:08;100190.0;;;21.27;52.27
61676;BME280;47574;52.090;5.244;2022-10-24T02:09:53;100187.0;;;21.36;51.97
61676;BME280;47574;52.090;5.244;2022-10-24T02:11:34;100180.0;;;21.65;51.51
61676;BME280;47574;52.090;5.244;2022-10-24T02:14:57;100180.0;;;21.31;51.92
61676;BME280;47574;52.090;5.244;2022-10-24T02:16:37;100183.0;;;21.3;52.01
61676;BME280;47574;52.090;5.244;2022-10-24T02:18:15;100184.0;;;21.44;51.4
61676;BME280;47574;52.090;5.244;2022-10-24T02:19:51;100182.0;;;21.25;51.85
61676;BME280;47574;52.090;5.244;2022-10-24T02:23:18;100183.0;;;21.02;52.15
61676;BME280;47574;52.090;5.244;2022-10-24T02:24:59;100176.0;;;21.06;52.0
61676;BME280;47574;52.090;5.244;2022-10-24T02:26:43;100178.0;;;21.32;51.37
61676;BME280;47574;52.090;5.244;2022-10-24T02:28:25;100175.0;;;21.02;51.95
61676;BME280;47574;52.090;5.244;2022-10-24T02:30:06;100180.0;;;20.96;52.15
61676;BME280;47574;52.090;5.244;2022-10-24T02:33:29;100180.0;;;21.23;51.25
61676;BME280;47574;52.090;5.244;2022-10-24T02:35:09;100177.0;;;21.21;51.26
61676;BME280;47574;52.090;5.244;2022-10-24T02:36:48;100181.0;;;21.14;51.68
61676;BME280;47574;52.090;5.244;2022-10-24T02:38:29;100180.0;;;21.11;51.32
61676;BME280;47574;52.090;5.244;2022-10-24T02:41:50;100182.0;;;21.06;51.52
61676;BME280;47574;52.090;5.244;2022-10-24T02:43:29;100178.0;;;20.92;51.72
61676;BME280;47574;52.090;5.244;2022-10-24T02:45:10;100173.0;;;20.88;51.93
61676;BME280;47574;52.090;5.244;2022-10-24T02:46:50;100180.0;;;21.03;51.43
61676;BME280;47574;52.090;5.244;2022-10-24T02:50:10;100174.0;;;21.18;51.08
61676;BME280;47574;52.090;5.244;2022-10-24T02:51:48;100175.0;;;21.16;51.11
61676;BME280;47574;52.090;5.244;2022-10-24T02:53:27;100180.0;;;20.83;51.47
61676;BME280;47574;52.090;5.244;2022-10-24T02:56:46;100177.0;;;20.97;51.16
61676;BME280;47574;52.090;5.244;2022-10-24T02:58:24;100174.0;;;20.84;51.49
61676;BME280;47574;52.090;5.244;2022-10-24T03:00:00;100176.0;;;20.98;51.16
61676;BME280;47574;52.090;5.244;2022-10-24T03:01:36;100171.0;;;20.96;51.0
61676;BME280;47574;52.090;5.244;2022-10-24T03:04:48;100177.0;;;20.91;51.12
61676;BME280;47574;52.090;5.244;2022-10-24T03:06:26;100173.0;;;21.1;50.84
61676;BME280;47574;52.090;5.244;2022-10-24T03:08:02;100170.0;;;20.82;51.26
61676;BME280;47574;52.090;5.244;2022-10-24T03:11:15;100183.0;;;20.82;51.28
61676;BME280;47574;52.090;5.244;2022-10-24T03:12:52;100176.0;;;21.32;50.41
61676;BME280;47574;52.090;5.244;2022-10-24T03:14:28;100180.0;;;20.8;51.05
61676;BME280;47574;52.090;5.244;2022-10-24T03:16:06;100172.0;;;21.03;50.54
61676;BME280;47574;52.090;5.244;2022-10-24T03:19:18;100170.0;;;20.91;50.76
61676;BME280;47574;52.090;5.244;2022-10-24T03:20:55;100172.0;;;21.04;50.42
61676;BME280;47574;52.090;5.244;2022-10-24T03:22:31;100175.0;;;20.86;50.78
61676;BME280;47574;52.090;5.244;2022-10-24T03:25:43;100178.0;;;20.88;50.8
61676;BME280;47574;52.090;5.244;2022-10-24T03:27:21;100186.0;;;20.83;50.87
61676;BME280;47574;52.090;5.244;2022-10-24T03:28:57;100175.0;;;20.81;50.88
61676;BME280;47574;52.090;5.244;2022-10-24T03:32:09;100176.0;;;20.9;50.69
61676;BME280;47574;52.090;5.244;2022-10-24T03:33:45;100177.0;;;20.87;50.88
61676;BME280;47574;52.090;5.244;2022-10-24T03:35:21;100191.0;;;20.78;51.02
61676;BME280;47574;52.090;5.244;2022-10-24T03:38:35;100180.0;;;20.78;51.04
61676;BME280;47574;52.090;5.244;2022-10-24T03:40:11;100180.0;;;20.89;50.63
61676;BME280;47574;52.090;5.244;2022-10-24T03:41:47;100188.0;;;20.8;50.89
61676;BME280;47574;52.090;5.244;2022-10-24T03:43:23;100183.0;;;20.83;50.7
61676;BME280;47574;52.090;5.244;2022-10-24T03:46:36;100184.0;;;20.61;50.85
61676;BME280;47574;52.090;5.244;2022-10-24T03:48:12;100183.0;;;20.41;51.18
61676;BME280;47574;52.090;5.244;2022-10-24T03:49:49;100187.0;;;20.71;50.59
61676;BME280;47574;52.090;5.244;2022-10-24T03:53:02;100186.0;;;20.69;50.58
61676;BME280;47574;52.090;5.244;2022-10-24T03:54:38;100189.0;;;20.49;50.86
61676;BME280;47574;52.090;5.244;2022-10-24T03:56:14;100183.0;;;20.47;50.82
61676;BME280;47574;52.090;5.244;2022-10-24T03:59:27;100185.0;;;20.76;50.49
61676;BME280;47574;52.090;5.244;2022-10-24T04:01:03;100183.0;;;20.76;50.04
61676;BME280;47574;52.090;5.244;2022-10-24T04:02:39;100186.0;;;20.79;50.12
61676;BME280;47574;52.090;5.244;2022-10-24T04:04:15;100187.0;;;20.73;50.09
61676;BME280;47574;52.090;5.244;2022-10-24T04:07:29;100186.0;;;20.7;49.98
61676;BME280;47574;52.090;5.244;2022-10-24T04:09:05;100188.0;;;20.8;49.4
61676;BME280;47574;52.090;5.244;2022-10-24T04:10:42;100184.0;;;20.75;49.69
61676;BME280;47574;52.090;5.244;2022-10-24T04:13:56;100177.0;;;20.36;50.69
61676;BME280;47574;52.090;5.244;2022-10-24T04:15:34;100175.0;;;20.81;49.65
61676;BME280;47574;52.090;5.244;2022-10-24T04:17:10;100176.0;;;21.01;49.25
61676;BME280;47574;52.090;5.244;2022-10-24T04:20:22;100182.0;;;20.85;49.37
61676;BME280;47574;52.090;5.244;2022-10-24T04:21:58;100181.0;;;20.81;49.79
61676;BME280;47574;52.090;5.244;2022-10-24T04:23:40;100178.0;;;20.72;49.84
61676;BME280;47574;52.090;5.244;2022-10-24T04:25:16;100180.0;;;20.6;50.1
61676;BME280;47574;52.090;5.244;2022-10-24T04:28:29;100180.0;;;20.68;49.96
61676;BME280;47574;52.090;5.244;2022-10-24T04:30:06;100166.0;;;20.74;50.23
61676;BME280;47574;52.090;5.244;2022-10-24T04:31:42;100173.0;;;20.86;49.84
61676;BME280;47574;52.090;5.244;2022-10-24T04:34:54;100178.0;;;20.71;50.02
61676;BME280;47574;52.090;5.244;2022-10-24T04:36:31;100177.0;;;21.13;49.22
61676;BME280;47574;52.090;5.244;2022-10-24T04:38:08;100175.0;;;20.81;49.75
61676;BME280;47574;52.090;5.244;2022-10-24T04:39:44;100174.0;;;20.75;49.87
61676;BME280;47574;52.090;5.244;2022-10-24T04:42:56;100175.0;;;20.91;49.89
61676;BME280;47574;52.090;5.244;2022-10-24T04:44:32;100170.0;;;20.93;49.82
61676;BME280;47574;52.090;5.244;2022-10-24T04:46:08;100180.0;;;20.75;50.04
61676;BME280;47574;52.090;5.244;2022-10-24T04:49:21;100171.0;;;21.18;49.19
61676;BME280;47574;52.090;5.244;2022-10-24T04:50:57;100168.0;;;21.31;48.89
61676;BME280;47574;52.090;5.244;2022-10-24T04:52:34;100167.0;;;21.16;49.29
61676;BME280;47574;52.090;5.244;2022-10-24T04:55:46;100170.0;;;21.14;49.11
61676;BME280;47574;52.090;5.244;2022-10-24T04:57:22;100157.0;;;20.73;49.81
61676;BME280;47574;52.090;5.244;2022-10-24T04:58:59;100158.0;;;20.92;49.55
61676;BME280;47574;52.090;5.244;2022-10-24T05:02:11;100167.0;;;20.9;49.4
61676;BME280;47574;52.090;5.244;2022-10-24T05:03:47;100167.0;;;21.01;49.59
61676;BME280;47574;52.090;5.244;2022-10-24T05:05:23;100168.0;;;20.92;49.6
61676;BME280;47574;52.090;5.244;2022-10-24T05:06:59;100164.0;;;21.24;48.88
61676;BME280;47574;52.090;5.244;2022-10-24T05:10:14;100166.0;;;21.14;49.33
61676;BME280;47574;52.090;5.244;2022-10-24T05:11:53;100166.0;;;20.97;49.65
61676;BME280;47574;52.090;5.244;2022-10-24T05:13:29;100167.0;;;20.9;50.0
61676;BME280;47574;52.090;5.244;2022-10-24T05:16:42;100167.0;;;20.82;50.3
61676;BME280;47574;52.090;5.244;2022-10-24T05:18:19;100172.0;;;20.78;50.37
61676;BME280;47574;52.090;5.244;2022-10-24T05:19:55;100164.0;;;21.0;49.92
61676;BME280;47574;52.090;5.244;2022-10-24T05:23:08;100167.0;;;21.0;49.97
61676;BME280;47574;52.090;5.244;2022-10-24T05:24:45;100170.0;;;20.79;50.37
61676;BME280;47574;52.090;5.244;2022-10-24T05:26:21;100170.0;;;21.11;49.7
61676;BME280;47574;52.090;5.244;2022-10-24T05:27:57;100175.0;;;20.77;50.36
61676;BME280;47574;52.090;5.244;2022-10-24T05:31:10;100168.0;;;20.97;50.03
61676;BME280;47574;52.090;5.244;2022-10-24T05:32:46;100173.0;;;20.83;50.53
61676;BME280;47574;52.090;5.244;2022-10-24T05:34:22;100173.0;;;20.79;50.5
61676;BME280;47574;52.090;5.244;2022-10-24T05:37:36;100168.0;;;20.91;50.39
61676;BME280;47574;52.090;5.244;2022-10-24T05:39:13;100175.0;;;20.72;50.46
61676;BME280;47574;52.090;5.244;2022-10-24T05:40:50;100188.0;;;20.78;50.54
61676;BME280;47574;52.090;5.244;2022-10-24T05:44:02;100173.0;;;20.84;50.46
61676;BME280;47574;52.090;5.244;2022-10-24T05:45:38;100176.0;;;20.85;50.33
61676;BME280;47574;52.090;5.244;2022-10-24T05:47:14;100172.0;;;20.74;50.41
61676;BME280;47574;52.090;5.244;2022-10-24T05:48:50;100169.0;;;20.62;50.94
61676;BME280;47574;52.090;5.244;2022-10-24T05:52:05;100165.0;;;20.86;50.31
61676;BME280;47574;52.090;5.244;2022-10-24T05:53:42;100163.0;;;20.9;50.28
61676;BME280;47574;52.090;5.244;2022-10-24T05:55:18;100168.0;;;21.0;50.03
61676;BME280;47574;52.090;5.244;2022-10-24T05:58:31;100165.0;;;21.04;50.06
61676;BME280;47574;52.090;5.244;2022-10-24T06:00:12;100172.0;;;20.6;50.85
61676;BME280;47574;52.090;5.244;2022-10-24T06:01:49;100171.0;;;20.59;50.9
61676;BME280;47574;52.090;5.244;2022-10-24T06:03:25;100171.0;;;20.77;50.49
61676;BME280;47574;52.090;5.244;2022-10-24T06:06:42;100168.0;;;20.86;50.22
61676;BME280;47574;52.090;5.244;2022-10-24T06:08:20;100174.0;;;20.65;50.66
61676;BME280;47574;52.090;5.244;2022-10-24T06:09:56;100180.0;;;20.43;51.36
61676;BME280;47574;52.090;5.244;2022-10-24T06:14:45;100180.0;;;20.78;50.62
61676;BME280;47574;52.090;5.244;2022-10-24T06:16:21;100174.0;;;20.8;50.37
61676;BME280;47574;52.090;5.244;2022-10-24T06:19:34;100172.0;;;20.87;50.39
61676;BME280;47574;52.090;5.244;2022-10-24T06:21:12;100184.0;;;20.45;51.25
61676;BME280;47574;52.090;5.244;2022-10-24T06:22:48;100182.0;;;20.75;50.75
61676;BME280;47574;52.090;5.244;2022-10-24T06:24:25;100190.0;;;20.55;51.16
61676;BME280;47574;52.090;5.244;2022-10-24T06:27:42;100193.0;;;20.74;50.81
61676;BME280;47574;52.090;5.244;2022-10-24T06:29:19;100191.0;;;20.76;50.79
61676;BME280;47574;52.090;5.244;2022-10-24T06:30:55;100195.0;;;20.85;50.58
61676;BME280;47574;52.090;5.244;2022-10-24T06:34:07;100190.0;;;20.67;51.1
61676;BME280;47574;52.090;5.244;2022-10-24T06:35:44;100185.0;;;20.92;50.75
61676;BME280;47574;52.090;5.244;2022-10-24T06:37:20;100190.0;;;20.32;51.72
61676;BME280;47574;52.090;5.244;2022-10-24T06:40:33;100192.0;;;20.43;51.47
61676;BME280;47574;52.090;5.244;2022-10-24T06:42:11;100192.0;;;20.3;52.02
61676;BME280;47574;52.090;5.244;2022-10-24T06:43:49;100195.0;;;20.32;51.68
61676;BME280;47574;52.090;5.244;2022-10-24T06:45:25;100198.0;;;20.68;50.92
61676;BME280;47574;52.090;5.244;2022-10-24T06:48:38;100205.0;;;20.69;50.9
61676;BME280;47574;52.090;5.244;2022-10-24T06:50:16;100209.0;;;20.57;51.19
61676;BME280;47574;52.090;5.244;2022-10-24T06:51:52;100217.0;;;20.28;51.75
61676;BME280;47574;52.090;5.244;2022-10-24T06:55:06;100222.0;;;20.69;50.99
61676;BME280;47574;52.090;5.244;2022-10-24T06:56:42;100218.0;;;20.39;51.69
61676;BME280;47574;52.090;5.244;2022-10-24T06:58:18;100215.0;;;20.79;50.91
61676;BME280;47574;52.090;5.244;2022-10-24T06:59:55;100220.0;;;20.57;51.08
61676;BME280;47574;52.090;5.244;2022-10-24T07:03:13;100224.0;;;20.64;51.09
61676;BME280;47574;52.090;5.244;2022-10-24T07:04:49;100230.0;;;20.64;50.99
61676;BME280;47574;52.090;5.244;2022-10-24T07:06:27;100228.0;;;20.61;51.29
61676;BME280;47574;52.090;5.244;2022-10-24T07:09:41;100231.0;;;20.59;51.05
61676;BME280;47574;52.090;5.244;2022-10-24T07:11:17;100244.0;;;20.73;51.08
61676;BME280;47574;52.090;5.244;2022-10-24T07:12:54;100248.0;;;20.78;51.03
61676;BME280;47574;52.090;5.244;2022-10-24T07:16:06;100248.0;;;20.92;50.73
61676;BME280;47574;52.090;5.244;2022-10-24T07:17:44;100245.0;;;20.91;50.84
61676;BME280;47574;52.090;5.244;2022-10-24T07:19:20;100255.0;;;20.29;52.05
61676;BME280;47574;52.090;5.244;2022-10-24T07:21:00;100259.0;;;20.56;51.64
61676;BME280;47574;52.090;5.244;2022-10-24T07:24:13;100272.0;;;20.65;51.65
61676;BME280;47574;52.090;5.244;2022-10-24T07:25:49;100273.0;;;20.28;52.42
61676;BME280;47574;52.090;5.244;2022-10-24T07:27:25;100272.0;;;20.78;51.41
61676;BME280;47574;52.090;5.244;2022-10-24T07:30:39;100275.0;;;20.27;52.4
61676;BME280;47574;52.090;5.244;2022-10-24T07:32:14;100278.0;;;20.83;51.35
61676;BME280;47574;52.090;5.244;2022-10-24T07:33:51;100277.0;;;20.67;51.75
61676;BME280;47574;52.090;5.244;2022-10-24T07:35:29;100280.0;;;20.83;51.44
61676;BME280;47574;52.090;5.244;2022-10-24T07:38:42;100278.0;;;20.29;52.55
61676;BME280;47574;52.090;5.244;2022-10-24T07:40:20;100285.0;;;20.34;52.53
61676;BME280;47574;52.090;5.244;2022-10-24T07:41:56;100283.0;;;20.7;51.98
61676;BME280;47574;52.090;5.244;2022-10-24T07:45:10;100287.0;;;20.57;52.16
61676;BME280;47574;52.090;5.244;2022-10-24T07:46:47;100289.0;;;20.53;52.26
61676;BME280;47574;52.090;5.244;2022-10-24T07:48:23;100291.0;;;20.39;52.49
61676;BME280;47574;52.090;5.244;2022-10-24T07:51:35;100291.0;;;20.09;53.19
61676;BME280;47574;52.090;5.244;2022-10-24T07:53:13;100294.0;;;20.27;52.84
61676;BME280;47574;52.090;5.244;2022-10-24T07:54:51;100290.0;;;20.14;53.16
61676;BME280;47574;52.090;5.244;2022-10-24T07:56:28;100303.0;;;20.16;53.25
61676;BME280;47574;52.090;5.244;2022-10-24T07:59:41;100296.0;;;20.23;52.94
61676;BME280;47574;52.090;5.244;2022-10-24T08:01:19;100303.0;;;20.05;53.55
61676;BME280;47574;52.090;5.244;2022-10-24T08:02:56;100301.0;;;20.22;53.25
61676;BME280;47574;52.090;5.244;2022-10-24T08:06:11;100311.0;;;20.0;53.58
61676;BME280;47574;52.090;5.244;2022-10-24T08:07:47;100305.0;;;20.41;52.72
61676;BME280;47574;52.090;5.244;2022-10-24T08:09:23;100306.0;;;20.18;53.12
61676;BME280;47574;52.090;5.244;2022-10-24T08:12:41;100309.0;;;20.02;53.71
61676;BME280;47574;52.090;5.244;2022-10-24T08:14:17;100318.0;;;20.45;52.77
61676;BME280;47574;52.090;5.244;2022-10-24T08:15:53;100309.0;;;20.36;52.83
61676;BME280;47574;52.090;5.244;2022-10-24T08:17:29;100316.0;;;20.31;53.01
61676;BME280;47574;52.090;5.244;2022-10-24T08:20:42;100318.0;;;19.95;53.68
61676;BME280;47574;52.090;5.244;2022-10-24T08:22:18;100323.0;;;20.28;53.06
61676;BME280;47574;52.090;5.244;2022-10-24T08:23:54;100328.0;;;20.0;53.73
61676;BME280;47574;52.090;5.244;2022-10-24T08:27:06;100333.0;;;19.66;54.58
61676;BME280;47574;52.090;5.244;2022-10-24T08:28:43;100334.0;;;20.31;53.18
61676;BME280;47574;52.090;5.244;2022-10-24T08:30:19;100333.0;;;20.36;53.11
61676;BME280;47574;52.090;5.244;2022-10-24T08:33:33;100330.0;;;20.02;53.74
61676;BME280;47574;52.090;5.244;2022-10-24T08:35:15;100330.0;;;20.25;53.27
61676;BME280;47574;52.090;5.244;2022-10-24T08:36:52;100341.0;;;20.41;53.1
61676;BME280;47574;52.090;5.244;2022-10-24T08:38:29;100337.0;;;20.48;52.72
61676;BME280;47574;52.090;5.244;2022-10-24T08:41:49;100334.0;;;20.29;53.28
61676;BME280;47574;52.090;5.244;2022-10-24T08:43:26;100342.0;;;20.39;53.01
61676;BME280;47574;52.090;5.244;2022-10-24T08:45:02;100337.0;;;20.34;53.03
61676;BME280;47574;52.090;5.244;2022-10-24T08:46:43;100345.0;;;20.05;53.56
61676;BME280;47574;52.090;5.244;2022-10-24T08:50:12;100347.0;;;20.11;53.55
61676;BME280;47574;52.090;5.244;2022-10-24T08:51:55;100345.0;;;20.41;52.82
61676;BME280;47574;52.090;5.244;2022-10-24T08:53:33;100355.0;;;19.95;53.91
61676;BME280;47574;52.090;5.244;2022-10-24T08:55:14;100356.0;;;20.05;53.54
61676;BME280;47574;52.090;5.244;2022-10-24T08:58:34;100363.0;;;20.14;53.53
61676;BME280;47574;52.090;5.244;2022-10-24T09:00:16;100355.0;;;20.11;53.26
61676;BME280;47574;52.090;5.244;2022-10-24T09:01:58;100365.0;;;19.96;53.62
61676;BME280;47574;52.090;5.244;2022-10-24T09:03:40;100349.0;;;20.0;53.57
61676;BME280;47574;52.090;5.244;2022-10-24T09:06:59;100364.0;;;20.07;53.29
61676;BME280;47574;52.090;5.244;2022-10-24T09:08:42;100370.0;;;19.84;53.85
61676;BME280;47574;52.090;5.244;2022-10-24T09:10:34;100373.0;;;20.18;53.14
61676;BME280;47574;52.090;5.244;2022-10-24T09:12:22;100380.0;;;20.27;53.34
61676;BME280;47574;52.090;5.244;2022-10-24T09:13:59;100380.0;;;20.16;54.65
61676;BME280;47574;52.090;5.244;2022-10-24T09:17:19;100380.0;;;20.16;54.22
61676;BME280;47574;52.090;5.244;2022-10-24T09:18:56;100390.0;;;20.11;54.5
61676;BME280;47574;52.090;5.244;2022-10-24T09:20:33;100410.0;;;19.98;54.41
61676;BME280;47574;52.090;5.244;2022-10-24T09:23:48;100393.0;;;20.12;54.18
61676;BME280;47574;52.090;5.244;2022-10-24T09:25:32;100401.0;;;19.95;54.63
61676;BME280;47574;52.090;5.244;2022-10-24T09:27:14;100399.0;;;20.41;53.57
61676;BME280;47574;52.090;5.244;2022-10-24T09:28:57;100408.0;;;20.61;53.14
61676;BME280;47574;52.090;5.244;2022-10-24T09:30:36;100409.0;;;20.45;53.5
61676;BME280;47574;52.090;5.244;2022-10-24T09:33:53;100421.0;;;20.75;52.83
61676;BME280;47574;52.090;5.244;2022-10-24T09:35:36;100418.0;;;20.14;53.9
61676;BME280;47574;52.090;5.244;2022-10-24T09:37:49;100449.0;;;20.02;55.87
61676;BME280;47574;52.090;5.244;2022-10-24T09:39:28;100423.0;;;19.45;58.47
61676;BME280;47574;52.090;5.244;2022-10-24T09:41:16;100432.0;;;19.54;59.1
61676;BME280;47574;52.090;5.244;2022-10-24T09:44:37;100437.0;;;19.39;59.33
61676;BME280;47574;52.090;5.244;2022-10-24T09:46:16;100436.0;;;19.32;59.27
61676;BME280;47574;52.090;5.244;2022-10-24T09:47:55;100451.0;;;19.37;59.14
61676;BME280;47574;52.090;5.244;2022-10-24T09:49:34;100440.0;;;19.72;58.16
61676;BME280;47574;52.090;5.244;2022-10-24T09:52:57;100445.0;;;19.68;58.52
61676;BME280;47574;52.090;5.244;2022-10-24T09:54:35;100443.0;;;19.93;57.89
61676;BME280;47574;52.090;5.244;2022-10-24T09:56:12;100449.0;;;19.54;58.44
61676;BME280;47574;52.090;5.244;2022-10-24T09:57:51;100455.0;;;19.62;57.95
61676;BME280;47574;52.090;5.244;2022-10-24T10:01:18;100464.0;;;19.86;57.32
61676;BME280;47574;52.090;5.244;2022-10-24T10:02:58;100463.0;;;19.89;56.93
61676;BME280;47574;52.090;5.244;2022-10-24T10:04:38;100466.0;;;19.93;56.99
61676;BME280;47574;52.090;5.244;2022-10-24T10:06:17;100463.0;;;19.96;56.85
61676;BME280;47574;52.090;5.244;2022-10-24T10:09:31;100468.0;;;19.93;57.27
61676;BME280;47574;52.090;5.244;2022-10-24T10:11:11;100466.0;;;19.93;56.75
61676;BME280;47574;52.090;5.244;2022-10-24T10:12:55;100472.0;;;19.98;56.33
61676;BME280;47574;52.090;5.244;2022-10-24T10:14:39;100470.0;;;19.46;57.37
61676;BME280;47574;52.090;5.244;2022-10-24T10:18:01;100484.0;;;19.45;57.38
61676;BME280;47574;52.090;5.244;2022-10-24T10:19:44;100478.0;;;20.02;56.2
61676;BME280;47574;52.090;5.244;2022-10-24T10:21:22;100481.0;;;20.02;56.13
61676;BME280;47574;52.090;5.244;2022-10-24T10:23:15;100488.0;;;20.43;55.29
61676;BME280;47574;52.090;5.244;2022-10-24T10:24:58;100486.0;;;19.88;56.07
61676;BME280;47574;52.090;5.244;2022-10-24T10:28:22;100497.0;;;19.82;56.08
61676;BME280;47574;52.090;5.244;2022-10-24T10:30:16;100496.0;;;19.97;55.46
61676;BME280;47574;52.090;5.244;2022-10-24T10:31:59;100506.0;;;19.89;55.33
61676;BME280;47574;52.090;5.244;2022-10-24T10:33:44;100500.0;;;19.73;55.81
61676;BME280;47574;52.090;5.244;2022-10-24T10:35:31;100505.0;;;20.27;55.02
61676;BME280;47574;52.090;5.244;2022-10-24T10:39:16;100506.0;;;20.66;54.04
61676;BME280;47574;52.090;5.244;2022-10-24T10:41:02;100505.0;;;20.18;54.77
61676;BME280;47574;52.090;5.244;2022-10-24T10:42:55;100508.0;;;20.37;54.51
61676;BME280;47574;52.090;5.244;2022-10-24T10:44:58;100515.0;;;20.36;54.06
61676;BME280;47574;52.090;5.244;2022-10-24T10:46:43;100514.0;;;20.14;54.64
61676;BME280;47574;52.090;5.244;2022-10-24T10:48:36;100521.0;;;19.98;54.92
61676;BME280;47574;52.090;5.244;2022-10-24T10:50:26;100527.0;;;20.09;54.93
61676;BME280;47574;52.090;5.244;2022-10-24T10:52:12;100521.0;;;20.07;55.06
61676;BME280;47574;52.090;5.244;2022-10-24T10:55:46;100527.0;;;20.66;53.72
61676;BME280;47574;52.090;5.244;2022-10-24T10:57:29;100537.0;;;20.12;54.61
61676;BME280;47574;52.090;5.244;2022-10-24T10:59:21;100530.0;;;20.45;53.62
61676;BME280;47574;52.090;5.244;2022-10-24T11:01:10;100547.0;;;20.37;53.63
61676;BME280;47574;52.090;5.244;2022-10-24T11:03:06;100547.0;;;20.34;53.78
61676;BME280;47574;52.090;5.244;2022-10-24T11:04:55;100555.0;;;20.27;54.18
61676;BME280;47574;52.090;5.244;2022-10-24T11:08:35;100551.0;;;20.49;53.8
61676;BME280;47574;52.090;5.244;2022-10-24T11:10:20;100552.0;;;20.21;54.29
61676;BME280;47574;52.090;5.244;2022-10-24T11:12:05;100564.0;;;20.68;53.4
61676;BME280;47574;52.090;5.244;2022-10-24T11:13:48;100558.0;;;20.18;54.2
61676;BME280;47574;52.090;5.244;2022-10-24T11:15:29;100555.0;;;20.39;53.84